Aeroporto :
LOGIN :

Iscrizione | Disclaimer

   EN    FR    IT 

 










Sommario :    VFR   VFR Marginale   IFR   IFR Intensivo   IFR Molto Intensivo
Visibilità : 
Base nubi : 
>= 8 km
>= 3000ft
5 / 8 km
1000 / 3000 ft
1500m / 5 km
500 / 1000 ft
800 / 1500m
200 / 500 ft
< 800m
< 200 ft
Simboli :   Temporali  Nebbia  Neve Forte  Precipitazioni Forti  Vento > 20 kt
SIGMETs :   Varie  Temporali  Ghiacco  Turbolenza  Onda orograficha  Ceneri Vulcaniche






- Altitudine del aeroporto : 125 ft
- Codice IATA : MGL


EDLN - Mönchengladbach

ULTIMO METAR :
  • 011920Z AUTO 02003KT 9999 // NCD 06/M03 Q1018

METARs OBSOLETI :
  • 011850Z AUTO VRB02KT 9999 // NCD 05/M03 Q1018
  • 011820Z 01003KT CAVOK 08/M05 Q1018
  • 011750Z 36003KT CAVOK 09/M05 Q1018
  • 011720Z 35005KT CAVOK 10/M04 Q1018
  • 011650Z 01003KT CAVOK 10/M04 Q1018

TAF TAF EDLN
Valido dal 01 a 18 ore il 02 a 03 ore UTC


011700Z 0118/0203 VRB03KT 9999 FEW045



MetMap, La meteo Aeronautica in un colpo d'occhio ! - Copyright ORBIFLY Dicembre 2007 - Disclaimer

ORBIFLY MET'MAP TEAM :

Programmazione e sviluppo : Alexandra Zaïnal
Concezione : Baudouin d'Aumeries
Aiuto per la programmazione : Marc-Olivier Méhu
Supporto tecnico e logistico : Manuel Goepfert
Aiuto per la traduzione : Arnaldo La Scala

Contatto : metmap@orbifly.com




FONTI E CREDITI :

   NOAA